sensor_id;sensor_type;location;lat;lon;timestamp;P1;durP1;ratioP1;P2;durP2;ratioP2
21183;SDS011;18176;49.502;11.754;2024-03-23T00:54:40;15.63;;;9.10;;
21183;SDS011;18176;49.502;11.754;2024-03-23T00:58:57;17.07;;;9.67;;
21183;SDS011;18176;49.502;11.754;2024-03-23T01:03:14;13.90;;;8.77;;
21183;SDS011;18176;49.502;11.754;2024-03-23T01:07:31;11.67;;;8.20;;
21183;SDS011;18176;49.502;11.754;2024-03-23T01:11:50;12.93;;;8.00;;
21183;SDS011;18176;49.502;11.754;2024-03-23T01:16:07;13.27;;;7.90;;
21183;SDS011;18176;49.502;11.754;2024-03-23T01:20:24;14.50;;;8.37;;
21183;SDS011;18176;49.502;11.754;2024-03-23T01:24:41;15.10;;;8.00;;
21183;SDS011;18176;49.502;11.754;2024-03-23T01:29:00;10.73;;;6.90;;
21183;SDS011;18176;49.502;11.754;2024-03-23T01:33:17;7.23;;;5.00;;
21183;SDS011;18176;49.502;11.754;2024-03-23T01:37:34;7.40;;;4.70;;
21183;SDS011;18176;49.502;11.754;2024-03-23T01:41:51;8.73;;;5.17;;
21183;SDS011;18176;49.502;11.754;2024-03-23T01:46:10;9.47;;;6.47;;
21183;SDS011;18176;49.502;11.754;2024-03-23T01:50:27;9.30;;;5.83;;
21183;SDS011;18176;49.502;11.754;2024-03-23T01:54:47;8.60;;;4.93;;
21183;SDS011;18176;49.502;11.754;2024-03-23T01:59:05;8.37;;;5.53;;
21183;SDS011;18176;49.502;11.754;2024-03-23T02:03:26;9.57;;;6.13;;
21183;SDS011;18176;49.502;11.754;2024-03-23T02:07:44;8.63;;;5.90;;
21183;SDS011;18176;49.502;11.754;2024-03-23T02:12:01;10.10;;;6.20;;
21183;SDS011;18176;49.502;11.754;2024-03-23T02:16:19;10.40;;;6.17;;
21183;SDS011;18176;49.502;11.754;2024-03-23T02:20:39;7.23;;;5.17;;
21183;SDS011;18176;49.502;11.754;2024-03-23T02:24:58;11.00;;;6.23;;
21183;SDS011;18176;49.502;11.754;2024-03-23T02:29:15;10.37;;;5.93;;
21183;SDS011;18176;49.502;11.754;2024-03-23T02:33:32;9.57;;;5.57;;
21183;SDS011;18176;49.502;11.754;2024-03-23T02:37:49;10.13;;;6.43;;
21183;SDS011;18176;49.502;11.754;2024-03-23T02:42:09;9.67;;;6.70;;
21183;SDS011;18176;49.502;11.754;2024-03-23T02:46:25;9.43;;;6.40;;
21183;SDS011;18176;49.502;11.754;2024-03-23T02:50:42;9.73;;;6.70;;
21183;SDS011;18176;49.502;11.754;2024-03-23T02:54:59;10.03;;;6.30;;
21183;SDS011;18176;49.502;11.754;2024-03-23T02:59:19;8.73;;;5.97;;
21183;SDS011;18176;49.502;11.754;2024-03-23T03:03:36;7.17;;;5.27;;
21183;SDS011;18176;49.502;11.754;2024-03-23T03:07:53;7.97;;;5.30;;
21183;SDS011;18176;49.502;11.754;2024-03-23T03:12:10;6.83;;;4.97;;
21183;SDS011;18176;49.502;11.754;2024-03-23T03:16:30;10.63;;;5.10;;
21183;SDS011;18176;49.502;11.754;2024-03-23T03:20:47;8.37;;;5.00;;
21183;SDS011;18176;49.502;11.754;2024-03-23T03:25:04;10.70;;;5.13;;
21183;SDS011;18176;49.502;11.754;2024-03-23T03:29:23;6.70;;;5.00;;
21183;SDS011;18176;49.502;11.754;2024-03-23T03:33:43;7.17;;;4.90;;
21183;SDS011;18176;49.502;11.754;2024-03-23T03:38:00;8.97;;;4.57;;
21183;SDS011;18176;49.502;11.754;2024-03-23T03:42:18;7.23;;;5.00;;
21183;SDS011;18176;49.502;11.754;2024-03-23T03:46:35;10.27;;;5.27;;
21183;SDS011;18176;49.502;11.754;2024-03-23T03:50:54;6.70;;;5.00;;
21183;SDS011;18176;49.502;11.754;2024-03-23T03:55:12;7.63;;;4.67;;
21183;SDS011;18176;49.502;11.754;2024-03-23T03:59:30;7.97;;;5.03;;
21183;SDS011;18176;49.502;11.754;2024-03-23T04:03:47;8.67;;;5.30;;
21183;SDS011;18176;49.502;11.754;2024-03-23T04:08:07;7.80;;;5.10;;
21183;SDS011;18176;49.502;11.754;2024-03-23T04:12:25;7.23;;;4.97;;
21183;SDS011;18176;49.502;11.754;2024-03-23T04:16:42;9.13;;;5.53;;
21183;SDS011;18176;49.502;11.754;2024-03-23T04:20:59;7.33;;;5.30;;
21183;SDS011;18176;49.502;11.754;2024-03-23T04:25:18;8.90;;;5.40;;
21183;SDS011;18176;49.502;11.754;2024-03-23T04:29:36;9.87;;;5.47;;
21183;SDS011;18176;49.502;11.754;2024-03-23T04:33:53;8.13;;;5.50;;
21183;SDS011;18176;49.502;11.754;2024-03-23T04:38:10;7.90;;;5.50;;
21183;SDS011;18176;49.502;11.754;2024-03-23T04:42:29;10.93;;;7.00;;
21183;SDS011;18176;49.502;11.754;2024-03-23T04:46:47;9.33;;;6.40;;
21183;SDS011;18176;49.502;11.754;2024-03-23T04:51:04;14.70;;;9.27;;
21183;SDS011;18176;49.502;11.754;2024-03-23T04:55:21;19.77;;;12.73;;
21183;SDS011;18176;49.502;11.754;2024-03-23T04:59:40;20.60;;;12.90;;
21183;SDS011;18176;49.502;11.754;2024-03-23T05:03:57;21.03;;;12.50;;
21183;SDS011;18176;49.502;11.754;2024-03-23T05:08:14;18.00;;;12.27;;
21183;SDS011;18176;49.502;11.754;2024-03-23T05:12:31;21.53;;;12.43;;
21183;SDS011;18176;49.502;11.754;2024-03-23T05:16:51;16.30;;;11.37;;
21183;SDS011;18176;49.502;11.754;2024-03-23T05:21:08;17.63;;;11.80;;
21183;SDS011;18176;49.502;11.754;2024-03-23T05:25:25;14.47;;;10.17;;
21183;SDS011;18176;49.502;11.754;2024-03-23T05:29:42;14.83;;;10.20;;
21183;SDS011;18176;49.502;11.754;2024-03-23T05:34:02;13.60;;;8.70;;
21183;SDS011;18176;49.502;11.754;2024-03-23T05:38:18;12.20;;;8.30;;
21183;SDS011;18176;49.502;11.754;2024-03-23T05:42:36;11.03;;;8.10;;
21183;SDS011;18176;49.502;11.754;2024-03-23T05:46:53;10.20;;;7.83;;
21183;SDS011;18176;49.502;11.754;2024-03-23T05:51:12;15.27;;;7.83;;
21183;SDS011;18176;49.502;11.754;2024-03-23T05:55:29;9.20;;;6.53;;
21183;SDS011;18176;49.502;11.754;2024-03-23T05:59:46;11.83;;;6.27;;
21183;SDS011;18176;49.502;11.754;2024-03-23T06:04:03;8.73;;;5.77;;
21183;SDS011;18176;49.502;11.754;2024-03-23T06:08:23;8.50;;;6.10;;
21183;SDS011;18176;49.502;11.754;2024-03-23T06:12:40;10.80;;;6.00;;
21183;SDS011;18176;49.502;11.754;2024-03-23T06:16:57;11.17;;;6.97;;
21183;SDS011;18176;49.502;11.754;2024-03-23T06:21:14;8.63;;;6.23;;
21183;SDS011;18176;49.502;11.754;2024-03-23T06:25:34;10.90;;;5.70;;
21183;SDS011;18176;49.502;11.754;2024-03-23T06:29:50;7.70;;;4.97;;
21183;SDS011;18176;49.502;11.754;2024-03-23T06:34:07;8.57;;;5.13;;
21183;SDS011;18176;49.502;11.754;2024-03-23T06:38:24;7.72;;;5.18;;
21183;SDS011;18176;49.502;11.754;2024-03-23T06:42:44;9.40;;;4.33;;
21183;SDS011;18176;49.502;11.754;2024-03-23T06:47:01;6.07;;;4.10;;
21183;SDS011;18176;49.502;11.754;2024-03-23T06:51:17;7.33;;;4.20;;
21183;SDS011;18176;49.502;11.754;2024-03-23T06:55:35;8.17;;;5.07;;
21183;SDS011;18176;49.502;11.754;2024-03-23T06:59:54;10.13;;;6.40;;
21183;SDS011;18176;49.502;11.754;2024-03-23T07:04:11;8.47;;;5.37;;
21183;SDS011;18176;49.502;11.754;2024-03-23T07:08:28;7.47;;;5.77;;
21183;SDS011;18176;49.502;11.754;2024-03-23T07:12:45;8.23;;;5.70;;
21183;SDS011;18176;49.502;11.754;2024-03-23T07:17:04;8.87;;;6.43;;
21183;SDS011;18176;49.502;11.754;2024-03-23T07:21:21;8.60;;;6.00;;
21183;SDS011;18176;49.502;11.754;2024-03-23T07:25:38;10.10;;;6.27;;
21183;SDS011;18176;49.502;11.754;2024-03-23T07:29:55;13.93;;;7.23;;
21183;SDS011;18176;49.502;11.754;2024-03-23T07:34:15;12.07;;;7.90;;
21183;SDS011;18176;49.502;11.754;2024-03-23T07:38:32;12.07;;;7.93;;
21183;SDS011;18176;49.502;11.754;2024-03-23T07:42:49;10.97;;;7.00;;
21183;SDS011;18176;49.502;11.754;2024-03-23T07:47:06;13.10;;;7.03;;
21183;SDS011;18176;49.502;11.754;2024-03-23T07:51:26;11.37;;;7.73;;
21183;SDS011;18176;49.502;11.754;2024-03-23T07:55:43;11.83;;;7.80;;
21183;SDS011;18176;49.502;11.754;2024-03-23T08:00:11;14.03;;;8.00;;
21183;SDS011;18176;49.502;11.754;2024-03-23T08:04:30;10.90;;;7.53;;
21183;SDS011;18176;49.502;11.754;2024-03-23T08:08:52;13.10;;;8.37;;
21183;SDS011;18176;49.502;11.754;2024-03-23T08:13:15;11.83;;;8.10;;
21183;SDS011;18176;49.502;11.754;2024-03-23T08:17:32;11.73;;;8.23;;
21183;SDS011;18176;49.502;11.754;2024-03-23T08:21:49;12.97;;;7.90;;
21183;SDS011;18176;49.502;11.754;2024-03-23T08:26:09;12.23;;;7.97;;
21183;SDS011;18176;49.502;11.754;2024-03-23T08:30:28;9.53;;;7.20;;
21183;SDS011;18176;49.502;11.754;2024-03-23T08:34:45;9.13;;;6.73;;
21183;SDS011;18176;49.502;11.754;2024-03-23T08:39:02;10.97;;;7.40;;
21183;SDS011;18176;49.502;11.754;2024-03-23T08:43:24;9.83;;;6.93;;
21183;SDS011;18176;49.502;11.754;2024-03-23T08:47:41;10.53;;;6.83;;
21183;SDS011;18176;49.502;11.754;2024-03-23T08:51:58;12.40;;;7.70;;
21183;SDS011;18176;49.502;11.754;2024-03-23T08:56:15;12.07;;;7.77;;
21183;SDS011;18176;49.502;11.754;2024-03-23T09:00:34;9.23;;;6.37;;
21183;SDS011;18176;49.502;11.754;2024-03-23T09:04:51;6.30;;;4.67;;
21183;SDS011;18176;49.502;11.754;2024-03-23T09:09:08;6.23;;;4.40;;
21183;SDS011;18176;49.502;11.754;2024-03-23T09:13:25;9.97;;;4.87;;
21183;SDS011;18176;49.502;11.754;2024-03-23T09:17:45;4.97;;;3.83;;
21183;SDS011;18176;49.502;11.754;2024-03-23T09:22:02;6.03;;;3.40;;
21183;SDS011;18176;49.502;11.754;2024-03-23T09:26:20;6.30;;;3.30;;
21183;SDS011;18176;49.502;11.754;2024-03-23T09:30:36;3.97;;;3.07;;
21183;SDS011;18176;49.502;11.754;2024-03-23T09:34:56;4.43;;;3.00;;
21183;SDS011;18176;49.502;11.754;2024-03-23T09:39:13;4.07;;;2.70;;
21183;SDS011;18176;49.502;11.754;2024-03-23T09:43:30;5.20;;;3.23;;
21183;SDS011;18176;49.502;11.754;2024-03-23T09:47:47;3.03;;;1.77;;
21183;SDS011;18176;49.502;11.754;2024-03-23T09:52:07;2.10;;;1.70;;
21183;SDS011;18176;49.502;11.754;2024-03-23T09:56:24;1.80;;;1.50;;
21183;SDS011;18176;49.502;11.754;2024-03-23T10:00:41;1.87;;;1.40;;
21183;SDS011;18176;49.502;11.754;2024-03-23T10:04:58;2.23;;;1.60;;
21183;SDS011;18176;49.502;11.754;2024-03-23T10:09:18;1.27;;;1.17;;
21183;SDS011;18176;49.502;11.754;2024-03-23T10:13:35;1.40;;;1.30;;
21183;SDS011;18176;49.502;11.754;2024-03-23T10:17:57;0.97;;;0.87;;
21183;SDS011;18176;49.502;11.754;2024-03-23T10:22:23;1.03;;;0.97;;
21183;SDS011;18176;49.502;11.754;2024-03-23T10:26:43;0.50;;;0.50;;
21183;SDS011;18176;49.502;11.754;2024-03-23T10:31:12;0.70;;;0.57;;
21183;SDS011;18176;49.502;11.754;2024-03-23T10:35:29;2.00;;;0.50;;
21183;SDS011;18176;49.502;11.754;2024-03-23T10:39:46;0.83;;;0.70;;
21183;SDS011;18176;49.502;11.754;2024-03-23T10:44:05;1.17;;;1.00;;
21183;SDS011;18176;49.502;11.754;2024-03-23T10:48:23;0.60;;;0.57;;
21183;SDS011;18176;49.502;11.754;2024-03-23T10:52:40;0.50;;;0.50;;
21183;SDS011;18176;49.502;11.754;2024-03-23T10:57:03;3.07;;;0.60;;
21183;SDS011;18176;49.502;11.754;2024-03-23T11:01:27;1.37;;;0.60;;
21183;SDS011;18176;49.502;11.754;2024-03-23T11:05:46;0.80;;;0.40;;
21183;SDS011;18176;49.502;11.754;2024-03-23T11:10:03;1.00;;;0.80;;
21183;SDS011;18176;49.502;11.754;2024-03-23T11:14:47;1.60;;;0.97;;
21183;SDS011;18176;49.502;11.754;2024-03-23T11:23:51;2.60;;;1.20;;
21183;SDS011;18176;49.502;11.754;2024-03-23T11:28:13;3.57;;;1.40;;
21183;SDS011;18176;49.502;11.754;2024-03-23T11:32:30;2.85;;;1.90;;
21183;SDS011;18176;49.502;11.754;2024-03-23T11:36:48;3.92;;;2.22;;
21183;SDS011;18176;49.502;11.754;2024-03-23T11:41:06;2.23;;;1.80;;
21183;SDS011;18176;49.502;11.754;2024-03-23T11:45:26;3.00;;;1.67;;
21183;SDS011;18176;49.502;11.754;2024-03-23T11:49:43;3.80;;;1.60;;
21183;SDS011;18176;49.502;11.754;2024-03-23T11:54:07;6.07;;;2.57;;
21183;SDS011;18176;49.502;11.754;2024-03-23T11:58:24;4.13;;;2.50;;
21183;SDS011;18176;49.502;11.754;2024-03-23T12:02:45;4.53;;;2.20;;
21183;SDS011;18176;49.502;11.754;2024-03-23T12:07:09;4.27;;;1.93;;
21183;SDS011;18176;49.502;11.754;2024-03-23T12:11:27;4.47;;;2.20;;
21183;SDS011;18176;49.502;11.754;2024-03-23T12:15:44;4.38;;;2.17;;
21183;SDS011;18176;49.502;11.754;2024-03-23T12:20:05;5.00;;;1.80;;
21183;SDS011;18176;49.502;11.754;2024-03-23T12:24:23;1.77;;;1.40;;
21183;SDS011;18176;49.502;11.754;2024-03-23T12:28:41;3.70;;;1.50;;
21183;SDS011;18176;49.502;11.754;2024-03-23T12:32:58;6.97;;;2.10;;
21183;SDS011;18176;49.502;11.754;2024-03-23T12:37:17;5.03;;;2.23;;
21183;SDS011;18176;49.502;11.754;2024-03-23T12:41:34;6.07;;;2.23;;
21183;SDS011;18176;49.502;11.754;2024-03-23T12:45:51;3.37;;;1.87;;
21183;SDS011;18176;49.502;11.754;2024-03-23T12:50:08;3.53;;;1.60;;
21183;SDS011;18176;49.502;11.754;2024-03-23T12:54:28;5.65;;;2.10;;
21183;SDS011;18176;49.502;11.754;2024-03-23T12:58:45;5.43;;;2.00;;
21183;SDS011;18176;49.502;11.754;2024-03-23T13:03:03;4.88;;;1.88;;
21183;SDS011;18176;49.502;11.754;2024-03-23T13:07:20;5.03;;;1.85;;
21183;SDS011;18176;49.502;11.754;2024-03-23T13:11:41;6.25;;;2.60;;
21183;SDS011;18176;49.502;11.754;2024-03-23T13:15:58;5.13;;;2.08;;
21183;SDS011;18176;49.502;11.754;2024-03-23T13:20:15;4.43;;;1.90;;
21183;SDS011;18176;49.502;11.754;2024-03-23T13:24:32;4.78;;;2.03;;
21183;SDS011;18176;49.502;11.754;2024-03-23T13:28:51;4.68;;;1.70;;
21183;SDS011;18176;49.502;11.754;2024-03-23T13:33:08;3.80;;;1.65;;
21183;SDS011;18176;49.502;11.754;2024-03-23T13:37:25;4.90;;;2.13;;
21183;SDS011;18176;49.502;11.754;2024-03-23T13:41:43;4.77;;;1.90;;
21183;SDS011;18176;49.502;11.754;2024-03-23T13:46:03;5.50;;;2.37;;
21183;SDS011;18176;49.502;11.754;2024-03-23T13:50:20;4.27;;;1.90;;
21183;SDS011;18176;49.502;11.754;2024-03-23T13:54:37;4.40;;;1.80;;
21183;SDS011;18176;49.502;11.754;2024-03-23T13:58:54;6.47;;;2.00;;
21183;SDS011;18176;49.502;11.754;2024-03-23T14:03:15;5.83;;;2.10;;
21183;SDS011;18176;49.502;11.754;2024-03-23T14:07:32;4.40;;;2.50;;
21183;SDS011;18176;49.502;11.754;2024-03-23T14:11:49;4.77;;;1.93;;
21183;SDS011;18176;49.502;11.754;2024-03-23T14:16:06;7.17;;;2.60;;
21183;SDS011;18176;49.502;11.754;2024-03-23T14:20:26;4.57;;;1.80;;
21183;SDS011;18176;49.502;11.754;2024-03-23T14:24:43;4.40;;;2.17;;
21183;SDS011;18176;49.502;11.754;2024-03-23T14:29:00;4.07;;;1.50;;
21183;SDS011;18176;49.502;11.754;2024-03-23T14:33:17;4.10;;;1.77;;
21183;SDS011;18176;49.502;11.754;2024-03-23T14:37:37;4.30;;;2.17;;
21183;SDS011;18176;49.502;11.754;2024-03-23T14:41:54;5.90;;;1.93;;
21183;SDS011;18176;49.502;11.754;2024-03-23T14:46:11;6.20;;;1.90;;
21183;SDS011;18176;49.502;11.754;2024-03-23T14:50:30;4.97;;;2.20;;
21183;SDS011;18176;49.502;11.754;2024-03-23T14:54:50;5.50;;;1.93;;
21183;SDS011;18176;49.502;11.754;2024-03-23T14:59:07;4.87;;;1.93;;
21183;SDS011;18176;49.502;11.754;2024-03-23T15:03:24;5.73;;;2.40;;
21183;SDS011;18176;49.502;11.754;2024-03-23T15:07:41;6.10;;;2.13;;
21183;SDS011;18176;49.502;11.754;2024-03-23T15:12:01;6.83;;;2.10;;
21183;SDS011;18176;49.502;11.754;2024-03-23T15:16:18;11.13;;;2.70;;
21183;SDS011;18176;49.502;11.754;2024-03-23T15:20:35;4.07;;;1.87;;
21183;SDS011;18176;49.502;11.754;2024-03-23T15:24:53;6.50;;;2.03;;
21183;SDS011;18176;49.502;11.754;2024-03-23T15:29:12;4.70;;;2.00;;
21183;SDS011;18176;49.502;11.754;2024-03-23T15:33:29;3.80;;;2.03;;
21183;SDS011;18176;49.502;11.754;2024-03-23T15:37:46;5.35;;;2.20;;
21183;SDS011;18176;49.502;11.754;2024-03-23T15:42:03;5.53;;;2.10;;
21183;SDS011;18176;49.502;11.754;2024-03-23T15:46:23;6.47;;;2.20;;
21183;SDS011;18176;49.502;11.754;2024-03-23T15:50:41;7.70;;;2.90;;
21183;SDS011;18176;49.502;11.754;2024-03-23T15:55:08;5.03;;;2.40;;
21183;SDS011;18176;49.502;11.754;2024-03-23T15:59:26;7.37;;;2.40;;
21183;SDS011;18176;49.502;11.754;2024-03-23T16:03:45;7.27;;;2.97;;
21183;SDS011;18176;49.502;11.754;2024-03-23T16:08:02;4.67;;;2.20;;
21183;SDS011;18176;49.502;11.754;2024-03-23T16:12:19;5.93;;;2.70;;
21183;SDS011;18176;49.502;11.754;2024-03-23T16:16:37;7.70;;;2.57;;
21183;SDS011;18176;49.502;11.754;2024-03-23T16:20:57;5.43;;;2.47;;
21183;SDS011;18176;49.502;11.754;2024-03-23T16:25:15;6.30;;;2.93;;
21183;SDS011;18176;49.502;11.754;2024-03-23T16:29:32;7.10;;;3.40;;
21183;SDS011;18176;49.502;11.754;2024-03-23T16:33:49;7.13;;;2.90;;
21183;SDS011;18176;49.502;11.754;2024-03-23T16:38:09;9.07;;;3.20;;
21183;SDS011;18176;49.502;11.754;2024-03-23T16:42:26;7.63;;;3.03;;
21183;SDS011;18176;49.502;11.754;2024-03-23T16:46:46;6.10;;;3.00;;
21183;SDS011;18176;49.502;11.754;2024-03-23T16:51:03;5.23;;;2.50;;
21183;SDS011;18176;49.502;11.754;2024-03-23T16:55:24;7.30;;;3.10;;
21183;SDS011;18176;49.502;11.754;2024-03-23T16:59:40;6.10;;;3.00;;
21183;SDS011;18176;49.502;11.754;2024-03-23T17:03:57;4.73;;;2.40;;
21183;SDS011;18176;49.502;11.754;2024-03-23T17:08:14;6.20;;;2.97;;
21183;SDS011;18176;49.502;11.754;2024-03-23T17:12:34;6.37;;;2.97;;
21183;SDS011;18176;49.502;11.754;2024-03-23T17:16:51;8.37;;;2.90;;
21183;SDS011;18176;49.502;11.754;2024-03-23T17:21:08;5.50;;;2.43;;
21183;SDS011;18176;49.502;11.754;2024-03-23T17:25:25;8.10;;;3.10;;
21183;SDS011;18176;49.502;11.754;2024-03-23T17:29:45;6.67;;;2.90;;
21183;SDS011;18176;49.502;11.754;2024-03-23T17:34:02;5.70;;;2.17;;
21183;SDS011;18176;49.502;11.754;2024-03-23T17:38:19;4.93;;;2.00;;
21183;SDS011;18176;49.502;11.754;2024-03-23T17:42:36;4.50;;;2.37;;
21183;SDS011;18176;49.502;11.754;2024-03-23T17:46:57;5.93;;;2.90;;
21183;SDS011;18176;49.502;11.754;2024-03-23T17:51:14;6.77;;;4.33;;
21183;SDS011;18176;49.502;11.754;2024-03-23T17:55:31;9.83;;;4.30;;
21183;SDS011;18176;49.502;11.754;2024-03-23T17:59:48;6.13;;;2.60;;
21183;SDS011;18176;49.502;11.754;2024-03-23T18:04:08;6.57;;;2.90;;
21183;SDS011;18176;49.502;11.754;2024-03-23T18:08:25;5.63;;;2.87;;
21183;SDS011;18176;49.502;11.754;2024-03-23T18:12:42;6.80;;;2.63;;
21183;SDS011;18176;49.502;11.754;2024-03-23T18:17:00;8.97;;;3.50;;
21183;SDS011;18176;49.502;11.754;2024-03-23T18:21:20;6.87;;;3.00;;
21183;SDS011;18176;49.502;11.754;2024-03-23T18:25:36;11.33;;;3.80;;
21183;SDS011;18176;49.502;11.754;2024-03-23T18:29:54;5.70;;;3.03;;
21183;SDS011;18176;49.502;11.754;2024-03-23T18:34:11;4.80;;;2.90;;
21183;SDS011;18176;49.502;11.754;2024-03-23T18:38:31;5.83;;;2.60;;
21183;SDS011;18176;49.502;11.754;2024-03-23T18:42:48;3.43;;;2.17;;
21183;SDS011;18176;49.502;11.754;2024-03-23T18:47:05;6.60;;;3.10;;
21183;SDS011;18176;49.502;11.754;2024-03-23T18:51:23;5.13;;;2.30;;
21183;SDS011;18176;49.502;11.754;2024-03-23T18:55:51;6.73;;;2.40;;
21183;SDS011;18176;49.502;11.754;2024-03-23T19:00:10;4.37;;;2.30;;
21183;SDS011;18176;49.502;11.754;2024-03-23T19:04:30;7.17;;;2.83;;
21183;SDS011;18176;49.502;11.754;2024-03-23T19:08:47;5.63;;;2.90;;
21183;SDS011;18176;49.502;11.754;2024-03-23T19:13:06;7.10;;;3.10;;
21183;SDS011;18176;49.502;11.754;2024-03-23T19:17:26;3.83;;;2.50;;
21183;SDS011;18176;49.502;11.754;2024-03-23T19:21:43;8.57;;;3.83;;
21183;SDS011;18176;49.502;11.754;2024-03-23T19:26:00;13.37;;;5.73;;
21183;SDS011;18176;49.502;11.754;2024-03-23T19:30:20;6.10;;;3.43;;
21183;SDS011;18176;49.502;11.754;2024-03-23T19:34:37;5.33;;;3.13;;
21183;SDS011;18176;49.502;11.754;2024-03-23T19:38:53;5.10;;;3.47;;
21183;SDS011;18176;49.502;11.754;2024-03-23T19:43:11;9.63;;;5.10;;
21183;SDS011;18176;49.502;11.754;2024-03-23T19:47:30;9.77;;;5.10;;
21183;SDS011;18176;49.502;11.754;2024-03-23T19:51:47;8.47;;;4.37;;
21183;SDS011;18176;49.502;11.754;2024-03-23T19:56:06;3.77;;;2.70;;
21183;SDS011;18176;49.502;11.754;2024-03-23T20:00:23;6.67;;;3.40;;
21183;SDS011;18176;49.502;11.754;2024-03-23T20:04:43;8.43;;;4.87;;
21183;SDS011;18176;49.502;11.754;2024-03-23T20:09:00;4.60;;;2.20;;
21183;SDS011;18176;49.502;11.754;2024-03-23T20:13:18;4.53;;;2.57;;
21183;SDS011;18176;49.502;11.754;2024-03-23T20:17:35;2.57;;;1.50;;
21183;SDS011;18176;49.502;11.754;2024-03-23T20:21:56;2.83;;;1.50;;
21183;SDS011;18176;49.502;11.754;2024-03-23T20:26:13;2.37;;;1.70;;
21183;SDS011;18176;49.502;11.754;2024-03-23T20:30:31;1.97;;;1.40;;
21183;SDS011;18176;49.502;11.754;2024-03-23T20:34:48;3.90;;;2.10;;
21183;SDS011;18176;49.502;11.754;2024-03-23T20:39:07;3.63;;;1.90;;
21183;SDS011;18176;49.502;11.754;2024-03-23T20:43:24;3.43;;;1.90;;
21183;SDS011;18176;49.502;11.754;2024-03-23T20:47:42;6.23;;;2.20;;
21183;SDS011;18176;49.502;11.754;2024-03-23T20:51:59;3.80;;;2.60;;
21183;SDS011;18176;49.502;11.754;2024-03-23T20:56:18;3.33;;;2.17;;
21183;SDS011;18176;49.502;11.754;2024-03-23T21:00:35;5.53;;;2.87;;
21183;SDS011;18176;49.502;11.754;2024-03-23T21:04:52;4.03;;;2.77;;
21183;SDS011;18176;49.502;11.754;2024-03-23T21:09:09;6.10;;;3.80;;
21183;SDS011;18176;49.502;11.754;2024-03-23T21:13:31;6.43;;;3.83;;
21183;SDS011;18176;49.502;11.754;2024-03-23T21:17:49;8.40;;;4.27;;
21183;SDS011;18176;49.502;11.754;2024-03-23T21:22:05;6.37;;;2.77;;
21183;SDS011;18176;49.502;11.754;2024-03-23T21:26:22;9.47;;;4.47;;
21183;SDS011;18176;49.502;11.754;2024-03-23T21:30:42;8.73;;;2.93;;
21183;SDS011;18176;49.502;11.754;2024-03-23T21:34:59;34.50;;;13.07;;
21183;SDS011;18176;49.502;11.754;2024-03-23T21:39:16;13.03;;;5.40;;
21183;SDS011;18176;49.502;11.754;2024-03-23T21:43:33;11.07;;;5.00;;
21183;SDS011;18176;49.502;11.754;2024-03-23T21:47:52;5.50;;;2.90;;
21183;SDS011;18176;49.502;11.754;2024-03-23T21:52:09;4.20;;;2.10;;
21183;SDS011;18176;49.502;11.754;2024-03-23T21:56:26;3.97;;;1.80;;
21183;SDS011;18176;49.502;11.754;2024-03-23T22:00:43;5.57;;;1.63;;
21183;SDS011;18176;49.502;11.754;2024-03-23T22:05:03;3.13;;;1.40;;
21183;SDS011;18176;49.502;11.754;2024-03-23T22:09:21;2.23;;;1.33;;
21183;SDS011;18176;49.502;11.754;2024-03-23T22:13:38;3.73;;;1.70;;
21183;SDS011;18176;49.502;11.754;2024-03-23T22:17:55;3.47;;;1.40;;
21183;SDS011;18176;49.502;11.754;2024-03-23T22:22:14;4.90;;;1.80;;
21183;SDS011;18176;49.502;11.754;2024-03-23T22:26:31;5.07;;;2.90;;
21183;SDS011;18176;49.502;11.754;2024-03-23T22:30:55;3.03;;;1.50;;
21183;SDS011;18176;49.502;11.754;2024-03-23T22:35:12;2.13;;;1.80;;
21183;SDS011;18176;49.502;11.754;2024-03-23T22:39:34;3.03;;;2.03;;
21183;SDS011;18176;49.502;11.754;2024-03-23T22:43:51;2.20;;;1.57;;
21183;SDS011;18176;49.502;11.754;2024-03-23T22:48:08;4.53;;;2.00;;
21183;SDS011;18176;49.502;11.754;2024-03-23T22:52:25;3.67;;;2.20;;
21183;SDS011;18176;49.502;11.754;2024-03-23T22:56:44;3.40;;;2.00;;
21183;SDS011;18176;49.502;11.754;2024-03-23T23:01:04;3.23;;;1.90;;
21183;SDS011;18176;49.502;11.754;2024-03-23T23:05:22;2.10;;;1.77;;
21183;SDS011;18176;49.502;11.754;2024-03-23T23:09:38;3.50;;;1.90;;
21183;SDS011;18176;49.502;11.754;2024-03-23T23:13:58;3.33;;;2.10;;
21183;SDS011;18176;49.502;11.754;2024-03-23T23:18:15;5.17;;;1.90;;
21183;SDS011;18176;49.502;11.754;2024-03-23T23:22:32;4.07;;;1.90;;
21183;SDS011;18176;49.502;11.754;2024-03-23T23:26:48;4.80;;;1.93;;
21183;SDS011;18176;49.502;11.754;2024-03-23T23:31:08;4.13;;;2.00;;
21183;SDS011;18176;49.502;11.754;2024-03-23T23:35:25;2.60;;;1.90;;
21183;SDS011;18176;49.502;11.754;2024-03-23T23:39:42;3.33;;;2.00;;
21183;SDS011;18176;49.502;11.754;2024-03-23T23:43:58;4.53;;;2.00;;
21183;SDS011;18176;49.502;11.754;2024-03-23T23:48:18;2.50;;;1.97;;
21183;SDS011;18176;49.502;11.754;2024-03-23T23:52:35;4.13;;;2.20;;
21183;SDS011;18176;49.502;11.754;2024-03-23T23:56:52;3.30;;;2.00;;
